Time;durP1;ratioP1;P1;durP2;ratioP2;P2;SDS_P1;SDS_P2;PMS_P1;PMS_P2;Temp;Humidity;BMP_temperature;BMP_pressure;BME280_temperature;BME280_humidity;BME280_pressure;Samples;Min_cycle;Max_cycle;Signal;HPM_P1;HPM_P2
2021/04/30 00:00:00;;;;;;;5.60;2.55;;;;;;;;;;4990981;28;20026;-62
2021/04/30 00:02:26;;;;;;;4.18;2.42;;;;;;;;;;4989695;28;20041;-62
2021/04/30 00:04:52;;;;;;;5.50;2.78;;;;;;;;;;4989928;28;20101;-62
2021/04/30 00:07:18;;;;;;;3.95;2.67;;;;;;;;;;4990152;28;20026;-62
2021/04/30 00:09:44;;;;;;;5.30;2.40;;;;;;;;;;4990085;28;20039;-62
2021/04/30 00:12:10;;;;;;;4.15;2.20;;;;;;;;;;4991965;28;20018;-62
2021/04/30 00:14:36;;;;;;;2.95;2.03;;;;;;;;;;4989632;28;20383;-62
2021/04/30 00:17:02;;;;;;;4.32;1.95;;;;;;;;;;4989640;28;20089;-62
2021/04/30 00:19:28;;;;;;;3.78;1.90;;;;;;;;;;4974990;28;20485;-62
2021/04/30 00:21:54;;;;;;;2.38;1.60;;;;;;;;;;4989026;28;20031;-62
2021/04/30 00:24:20;;;;;;;1.98;1.40;;;;;;;;;;4992749;28;20058;-62
2021/04/30 00:26:46;;;;;;;3.40;2.00;;;;;;;;;;4989600;28;20533;-62
2021/04/30 00:29:12;;;;;;;2.53;1.67;;;;;;;;;;4989647;28;20134;-62
2021/04/30 00:31:38;;;;;;;4.53;1.90;;;;;;;;;;4988886;28;20035;-62
2021/04/30 00:34:04;;;;;;;5.55;2.00;;;;;;;;;;4989682;28;20034;-62
2021/04/30 00:36:30;;;;;;;2.33;1.60;;;;;;;;;;4991257;28;20501;-62
2021/04/30 00:38:57;;;;;;;3.13;1.70;;;;;;;;;;4990156;28;20074;-62
2021/04/30 00:41:23;;;;;;;3.45;1.58;;;;;;;;;;4989183;28;20030;-62
2021/04/30 00:43:49;;;;;;;3.65;1.95;;;;;;;;;;4988859;28;20037;-62
2021/04/30 00:46:15;;;;;;;5.28;2.33;;;;;;;;;;4988788;28;20026;-62
2021/04/30 00:48:41;;;;;;;4.53;2.30;;;;;;;;;;4990412;28;20117;-62
2021/04/30 00:51:07;;;;;;;6.95;2.60;;;;;;;;;;4991418;28;20106;-62
2021/04/30 00:53:33;;;;;;;5.15;2.20;;;;;;;;;;4988747;28;20522;-62
2021/04/30 00:55:59;;;;;;;5.13;2.85;;;;;;;;;;4989072;28;20109;-62
2021/04/30 00:58:26;;;;;;;3.25;2.00;;;;;;;;;;4988558;28;20045;-62
2021/04/30 01:00:52;;;;;;;5.28;2.15;;;;;;;;;;4989136;28;20037;-62
2021/04/30 01:03:18;;;;;;;3.97;1.90;;;;;;;;;;4992527;28;20482;-62
2021/04/30 01:05:44;;;;;;;3.75;1.95;;;;;;;;;;4989059;28;20034;-62
2021/04/30 01:08:10;;;;;;;3.22;1.92;;;;;;;;;;4988365;28;20035;-62
2021/04/30 01:10:36;;;;;;;3.10;1.90;;;;;;;;;;4988568;28;20022;-62
2021/04/30 01:13:03;;;;;;;3.75;2.28;;;;;;;;;;4989234;28;20073;-62
2021/04/30 01:15:29;;;;;;;2.92;1.88;;;;;;;;;;4991336;28;20026;-62
2021/04/30 01:17:55;;;;;;;3.92;1.90;;;;;;;;;;4989372;28;20717;-62
2021/04/30 01:20:21;;;;;;;2.35;1.60;;;;;;;;;;4989010;28;20478;-62
2021/04/30 01:22:52;;;;;;;3.85;1.60;;;;;;;;;;4988138;28;20038;-62
2021/04/30 01:25:20;;;;;;;2.83;1.75;;;;;;;;;;4988507;28;20421;-62
2021/04/30 01:27:46;;;;;;;2.65;1.95;;;;;;;;;;4989595;28;20023;-62
2021/04/30 01:30:14;;;;;;;2.40;1.80;;;;;;;;;;4991574;28;20162;-62
2021/04/30 01:32:39;;;;;;;5.57;2.10;;;;;;;;;;4988318;28;20497;-62
2021/04/30 01:35:06;;;;;;;3.95;1.90;;;;;;;;;;4988975;28;20086;-62
2021/04/30 01:37:32;;;;;;;4.13;2.10;;;;;;;;;;4988249;28;20045;-62
2021/04/30 01:39:58;;;;;;;2.33;1.40;;;;;;;;;;4989003;28;20101;-62
2021/04/30 01:42:24;;;;;;;1.77;1.50;;;;;;;;;;4991786;28;20030;-62
2021/04/30 01:44:51;;;;;;;2.92;1.77;;;;;;;;;;4989140;28;20050;-62
2021/04/30 01:47:17;;;;;;;2.60;1.23;;;;;;;;;;4988499;28;20035;-62
2021/04/30 01:49:44;;;;;;;1.55;1.13;;;;;;;;;;4988782;28;20023;-62
2021/04/30 01:52:10;;;;;;;2.40;1.20;;;;;;;;;;4988820;28;20022;-62
2021/04/30 01:54:36;;;;;;;2.25;1.27;;;;;;;;;;4992630;28;20022;-62
2021/04/30 01:57:02;;;;;;;2.17;1.50;;;;;;;;;;4993083;28;20026;-63
2021/04/30 01:59:28;;;;;;;3.15;1.17;;;;;;;;;;4992378;28;20121;-62
2021/04/30 02:01:54;;;;;;;1.40;1.20;;;;;;;;;;4992315;28;20033;-62
2021/04/30 02:04:20;;;;;;;1.70;1.13;;;;;;;;;;4991846;28;20147;-62
2021/04/30 02:06:46;;;;;;;1.48;1.10;;;;;;;;;;4992361;28;20023;-63
2021/04/30 02:09:13;;;;;;;1.80;0.90;;;;;;;;;;4994779;28;20026;-62
2021/04/30 02:11:39;;;;;;;2.42;1.15;;;;;;;;;;4992121;28;20026;-63
2021/04/30 02:14:06;;;;;;;6.85;1.17;;;;;;;;;;4991672;28;20034;-62
2021/04/30 02:16:32;;;;;;;1.67;0.98;;;;;;;;;;4991797;28;20022;-62
2021/04/30 02:18:59;;;;;;;2.25;1.17;;;;;;;;;;4991318;28;20043;-62
2021/04/30 02:21:25;;;;;;;2.95;1.30;;;;;;;;;;4994450;28;20501;-62
2021/04/30 02:23:51;;;;;;;2.95;1.30;;;;;;;;;;4992312;28;20133;-62
2021/04/30 02:26:17;;;;;;;5.68;1.35;;;;;;;;;;4991439;28;20030;-62
2021/04/30 02:28:45;;;;;;;2.15;1.17;;;;;;;;;;4991183;28;20053;-62
2021/04/30 02:31:12;;;;;;;2.47;1.02;;;;;;;;;;4991512;28;20113;-62
2021/04/30 02:33:38;;;;;;;2.15;1.35;;;;;;;;;;4993295;28;20073;-62
2021/04/30 02:36:04;;;;;;;2.55;1.10;;;;;;;;;;4993185;28;20018;-62
2021/04/30 02:38:31;;;;;;;2.22;1.35;;;;;;;;;;4991368;28;20042;-63
2021/04/30 02:40:57;;;;;;;3.03;1.13;;;;;;;;;;4990895;28;20528;-64
2021/04/30 02:43:23;;;;;;;1.73;1.23;;;;;;;;;;4992496;28;20039;-62
2021/04/30 02:45:53;;;;;;;2.08;1.10;;;;;;;;;;4976299;28;20077;-62
2021/04/30 02:48:34;;;;;;;1.52;1.20;;;;;;;;;;4990253;28;20027;-62
2021/04/30 02:51:01;;;;;;;3.53;1.30;;;;;;;;;;4993922;28;20113;-62
2021/04/30 02:53:27;;;;;;;2.13;1.38;;;;;;;;;;4991193;28;20034;-62
2021/04/30 02:55:53;;;;;;;1.40;0.90;;;;;;;;;;4991306;28;20034;-62
2021/04/30 02:58:19;;;;;;;1.90;1.02;;;;;;;;;;4990811;28;20498;-64
2021/04/30 03:00:45;;;;;;;3.33;1.50;;;;;;;;;;4991785;28;20106;-64
2021/04/30 03:03:11;;;;;;;1.90;1.10;;;;;;;;;;4993143;28;20039;-64
2021/04/30 03:05:37;;;;;;;1.45;1.20;;;;;;;;;;4990197;28;20026;-64
2021/04/30 03:08:04;;;;;;;2.72;1.02;;;;;;;;;;4990914;28;20030;-65
2021/04/30 03:10:30;;;;;;;2.90;1.40;;;;;;;;;;4990144;28;20015;-64
2021/04/30 03:12:56;;;;;;;2.85;1.50;;;;;;;;;;4991084;28;20027;-64
2021/04/30 03:15:22;;;;;;;2.47;1.20;;;;;;;;;;4993896;28;20041;-64
2021/04/30 03:17:48;;;;;;;2.00;1.13;;;;;;;;;;4992204;28;20398;-65
2021/04/30 03:20:15;;;;;;;3.35;1.40;;;;;;;;;;4990743;28;20037;-64
2021/04/30 03:22:41;;;;;;;1.92;1.10;;;;;;;;;;4989698;28;20035;-64
2021/04/30 03:25:08;;;;;;;3.67;1.63;;;;;;;;;;4990469;28;20034;-64
2021/04/30 03:27:34;;;;;;;3.10;1.30;;;;;;;;;;4992973;28;20026;-65
2021/04/30 03:30:00;;;;;;;1.25;1.05;;;;;;;;;;4990960;28;20088;-64
2021/04/30 03:32:26;;;;;;;2.20;1.40;;;;;;;;;;4989132;28;20077;-64
2021/04/30 03:34:53;;;;;;;3.70;1.17;;;;;;;;;;4989990;28;20504;-64
2021/04/30 03:37:19;;;;;;;1.95;1.45;;;;;;;;;;4991668;28;20110;-64
2021/04/30 03:39:45;;;;;;;2.03;1.40;;;;;;;;;;4984340;28;20545;-64
2021/04/30 03:42:11;;;;;;;3.63;1.70;;;;;;;;;;4986046;28;20030;-65
2021/04/30 03:44:37;;;;;;;3.13;1.52;;;;;;;;;;4989831;28;20038;-64
2021/04/30 03:47:03;;;;;;;2.05;1.35;;;;;;;;;;4985758;28;20501;-68
2021/04/30 03:49:29;;;;;;;1.52;1.15;;;;;;;;;;4987552;28;20374;-68
2021/04/30 03:51:55;;;;;;;2.03;1.17;;;;;;;;;;5005286;28;20095;-68
2021/04/30 03:54:21;;;;;;;1.80;1.20;;;;;;;;;;4995949;28;20041;-68
2021/04/30 03:56:47;;;;;;;2.92;1.13;;;;;;;;;;4994431;28;20501;-64
2021/04/30 03:59:13;;;;;;;2.65;1.17;;;;;;;;;;4994196;28;20109;-64
2021/04/30 04:01:39;;;;;;;2.85;1.50;;;;;;;;;;4993963;28;20469;-64
2021/04/30 04:04:05;;;;;;;1.50;1.10;;;;;;;;;;4990927;28;20107;-64
2021/04/30 04:06:31;;;;;;;1.80;1.05;;;;;;;;;;4994022;28;20485;-64
2021/04/30 04:08:57;;;;;;;1.90;0.95;;;;;;;;;;4995184;28;20027;-64
2021/04/30 04:11:23;;;;;;;1.25;0.93;;;;;;;;;;4994024;28;20038;-64
2021/04/30 04:13:49;;;;;;;3.05;0.98;;;;;;;;;;4994058;28;20033;-64
2021/04/30 04:16:15;;;;;;;1.67;1.00;;;;;;;;;;4992267;28;20030;-65
2021/04/30 04:18:41;;;;;;;2.63;1.20;;;;;;;;;;4991431;28;20482;-64
2021/04/30 04:21:07;;;;;;;1.20;0.90;;;;;;;;;;4995904;28;20394;-64
2021/04/30 04:23:33;;;;;;;2.42;1.10;;;;;;;;;;4993334;28;20050;-64
2021/04/30 04:25:59;;;;;;;1.73;1.10;;;;;;;;;;4993546;28;20037;-64
2021/04/30 04:28:25;;;;;;;2.03;1.40;;;;;;;;;;4993770;28;20034;-64
2021/04/30 04:30:52;;;;;;;3.00;1.58;;;;;;;;;;4972574;28;20037;-64
2021/04/30 04:33:19;;;;;;;4.32;1.70;;;;;;;;;;4991985;28;20030;-64
2021/04/30 04:35:45;;;;;;;2.10;1.45;;;;;;;;;;4989129;28;20018;-64
2021/04/30 04:38:11;;;;;;;3.65;2.20;;;;;;;;;;4989285;28;20121;-64
2021/04/30 04:40:37;;;;;;;3.80;1.42;;;;;;;;;;4989187;28;20462;-64
2021/04/30 04:43:03;;;;;;;2.65;1.92;;;;;;;;;;4988841;28;20031;-64
2021/04/30 04:45:29;;;;;;;3.92;2.00;;;;;;;;;;4991004;28;20390;-64
2021/04/30 04:47:55;;;;;;;2.80;1.90;;;;;;;;;;4990253;28;20030;-64
2021/04/30 04:50:21;;;;;;;4.07;2.10;;;;;;;;;;4989111;28;20026;-64
2021/04/30 04:52:47;;;;;;;2.63;1.83;;;;;;;;;;4989014;28;20039;-64
2021/04/30 04:55:16;;;;;;;2.78;1.83;;;;;;;;;;4988992;28;20478;-64
2021/04/30 04:57:42;;;;;;;2.78;1.95;;;;;;;;;;4990437;28;20065;-65
2021/04/30 05:00:09;;;;;;;2.90;1.63;;;;;;;;;;4990731;28;20085;-63
2021/04/30 05:02:35;;;;;;;2.38;1.70;;;;;;;;;;4988925;28;20041;-63
2021/04/30 05:05:01;;;;;;;2.95;1.55;;;;;;;;;;4989000;28;20033;-63
2021/04/30 05:07:27;;;;;;;4.88;1.65;;;;;;;;;;4988868;28;20029;-63
2021/04/30 05:09:53;;;;;;;3.97;1.70;;;;;;;;;;4988758;28;20030;-68
2021/04/30 05:12:19;;;;;;;1.60;1.10;;;;;;;;;;4992187;28;20022;-68
2021/04/30 05:14:45;;;;;;;1.67;0.82;;;;;;;;;;4983996;28;20041;-67
2021/04/30 05:17:12;;;;;;;0.90;0.60;;;;;;;;;;4983987;28;20035;-67
2021/04/30 05:19:38;;;;;;;3.15;1.67;;;;;;;;;;4988831;28;20080;-67
2021/04/30 05:22:12;;;;;;;2.70;1.27;;;;;;;;;;4987945;28;20023;-68
2021/04/30 05:24:38;;;;;;;1.80;1.10;;;;;;;;;;4990473;28;20042;-68
2021/04/30 05:27:05;;;;;;;1.95;1.20;;;;;;;;;;4990456;28;20031;-68
2021/04/30 05:29:32;;;;;;;5.40;1.38;;;;;;;;;;4990492;28;20030;-68
2021/04/30 05:31:58;;;;;;;2.15;0.90;;;;;;;;;;4992660;28;20023;-68
2021/04/30 05:34:24;;;;;;;2.67;1.00;;;;;;;;;;4992567;28;20355;-68
2021/04/30 05:36:50;;;;;;;0.70;0.70;;;;;;;;;;4976591;28;20027;-69
2021/04/30 05:39:16;;;;;;;2.80;1.20;;;;;;;;;;4995662;28;20558;-67
2021/04/30 05:41:42;;;;;;;1.95;1.00;;;;;;;;;;4992290;28;20030;-68
2021/04/30 05:44:08;;;;;;;2.72;1.10;;;;;;;;;;4992233;28;20112;-66
2021/04/30 05:46:34;;;;;;;1.90;1.23;;;;;;;;;;4992137;28;20030;-65
2021/04/30 05:49:01;;;;;;;2.00;1.00;;;;;;;;;;4992661;28;20609;-65
2021/04/30 05:51:27;;;;;;;2.58;1.13;;;;;;;;;;4994591;28;20019;-67
2021/04/30 05:53:53;;;;;;;2.78;1.13;;;;;;;;;;4993244;28;20081;-68
2021/04/30 05:56:19;;;;;;;0.95;0.80;;;;;;;;;;4992263;28;20533;-68
2021/04/30 05:58:45;;;;;;;2.80;1.00;;;;;;;;;;4991706;28;20042;-68
2021/04/30 06:01:11;;;;;;;1.05;0.88;;;;;;;;;;4992094;28;20031;-68
2021/04/30 06:03:37;;;;;;;2.42;1.00;;;;;;;;;;4993845;28;20364;-68
2021/04/30 06:06:03;;;;;;;1.90;1.30;;;;;;;;;;4993558;28;20073;-68
2021/04/30 06:08:29;;;;;;;1.60;1.15;;;;;;;;;;4991645;28;20474;-68
2021/04/30 06:10:55;;;;;;;1.83;1.20;;;;;;;;;;4992160;28;20038;-68
2021/04/30 06:13:21;;;;;;;1.83;1.20;;;;;;;;;;4991407;28;20030;-65
2021/04/30 06:15:47;;;;;;;2.85;1.30;;;;;;;;;;4992801;28;20035;-64
2021/04/30 06:18:13;;;;;;;1.58;1.10;;;;;;;;;;4994609;28;20068;-67
2021/04/30 06:20:39;;;;;;;1.10;0.93;;;;;;;;;;4991459;28;20037;-67
2021/04/30 06:23:05;;;;;;;1.95;1.00;;;;;;;;;;4991129;28;20088;-67
2021/04/30 06:25:32;;;;;;;1.58;1.00;;;;;;;;;;4991856;28;20475;-68
2021/04/30 06:27:58;;;;;;;3.45;0.95;;;;;;;;;;4991340;28;20054;-67
2021/04/30 06:30:24;;;;;;;0.85;0.80;;;;;;;;;;4990819;28;20034;-68
2021/04/30 06:32:50;;;;;;;3.80;1.20;;;;;;;;;;4977078;28;20030;-67
2021/04/30 06:35:16;;;;;;;1.80;1.30;;;;;;;;;;4987759;28;20030;-67
2021/04/30 06:37:42;;;;;;;2.05;1.13;;;;;;;;;;4991661;28;20038;-67
2021/04/30 06:40:08;;;;;;;2.78;1.25;;;;;;;;;;4988600;28;20410;-67
2021/04/30 06:42:34;;;;;;;1.58;0.93;;;;;;;;;;4991156;28;20038;-67
2021/04/30 06:45:00;;;;;;;1.20;0.95;;;;;;;;;;4984246;28;20030;-67
2021/04/30 06:47:26;;;;;;;1.38;1.00;;;;;;;;;;4981975;28;20109;-68
2021/04/30 06:49:53;;;;;;;1.13;0.90;;;;;;;;;;4983487;28;20113;-67
2021/04/30 06:52:19;;;;;;;1.00;0.90;;;;;;;;;;4992677;28;20026;-67
2021/04/30 06:54:45;;;;;;;1.58;1.02;;;;;;;;;;4991622;28;20496;-68
2021/04/30 06:57:11;;;;;;;1.50;1.00;;;;;;;;;;4991283;28;20052;-67
2021/04/30 06:59:37;;;;;;;1.52;1.10;;;;;;;;;;4990784;28;20061;-68
2021/04/30 07:02:04;;;;;;;3.35;1.23;;;;;;;;;;4987879;28;20057;-67
2021/04/30 07:04:30;;;;;;;2.70;1.60;;;;;;;;;;4991331;28;20034;-68
2021/04/30 07:06:56;;;;;;;2.42;1.00;;;;;;;;;;4988330;28;20026;-68
2021/04/30 07:09:22;;;;;;;3.97;1.83;;;;;;;;;;4993001;28;20124;-68
2021/04/30 07:11:48;;;;;;;2.10;1.23;;;;;;;;;;4991696;28;20037;-67
2021/04/30 07:14:14;;;;;;;2.45;1.20;;;;;;;;;;4990444;28;20478;-67
2021/04/30 07:16:40;;;;;;;1.38;1.10;;;;;;;;;;4990070;28;20022;-67
2021/04/30 07:19:06;;;;;;;4.07;1.10;;;;;;;;;;4989570;28;20046;-67
2021/04/30 07:21:32;;;;;;;1.33;0.90;;;;;;;;;;4992595;28;20026;-67
2021/04/30 07:23:58;;;;;;;0.85;0.50;;;;;;;;;;4990780;28;20097;-67
2021/04/30 07:26:24;;;;;;;1.60;0.60;;;;;;;;;;4989890;28;20037;-67
2021/04/30 07:28:50;;;;;;;0.73;0.52;;;;;;;;;;4989694;28;20026;-67
2021/04/30 07:31:16;;;;;;;0.60;0.60;;;;;;;;;;4989294;28;20394;-67
2021/04/30 07:33:48;;;;;;;0.75;0.70;;;;;;;;;;4990027;28;20039;-67
2021/04/30 07:36:15;;;;;;;1.02;0.50;;;;;;;;;;4992529;28;20026;-67
2021/04/30 07:38:41;;;;;;;1.85;0.43;;;;;;;;;;4989067;28;20034;-67
2021/04/30 07:41:07;;;;;;;0.22;0.22;;;;;;;;;;4974917;28;20026;-67
2021/04/30 07:43:33;;;;;;;0.80;0.40;;;;;;;;;;4990099;28;20109;-67
2021/04/30 07:45:59;;;;;;;0.73;0.30;;;;;;;;;;4989489;28;20098;-67
2021/04/30 07:48:26;;;;;;;0.90;0.50;;;;;;;;;;4990680;28;20026;-67
2021/04/30 07:50:52;;;;;;;0.60;0.30;;;;;;;;;;4988429;28;20030;-67
2021/04/30 07:53:18;;;;;;;0.30;0.30;;;;;;;;;;4989248;28;20049;-67
2021/04/30 07:55:44;;;;;;;1.13;0.60;;;;;;;;;;4989068;28;20022;-68
2021/04/30 07:58:10;;;;;;;1.45;0.60;;;;;;;;;;4989087;28;20030;-67
2021/04/30 08:00:36;;;;;;;0.40;0.40;;;;;;;;;;4991297;28;20106;-67
2021/04/30 08:03:02;;;;;;;2.63;0.63;;;;;;;;;;4990648;28;20500;-67
2021/04/30 08:05:28;;;;;;;2.60;0.73;;;;;;;;;;4988823;28;20058;-67
2021/04/30 08:07:54;;;;;;;1.30;0.70;;;;;;;;;;4987882;28;20034;-68
2021/04/30 08:10:21;;;;;;;2.58;0.40;;;;;;;;;;4989276;28;20500;-67
2021/04/30 08:12:47;;;;;;;0.50;0.30;;;;;;;;;;4989670;28;20034;-67
2021/04/30 08:15:15;;;;;;;1.00;0.38;;;;;;;;;;4991436;28;20018;-67
2021/04/30 08:17:41;;;;;;;2.58;0.40;;;;;;;;;;4989139;28;20042;-67
2021/04/30 08:20:08;;;;;;;1.42;0.30;;;;;;;;;;4988513;28;20026;-67
2021/04/30 08:22:34;;;;;;;1.90;0.65;;;;;;;;;;4973773;28;20022;-67
2021/04/30 08:25:00;;;;;;;1.45;0.50;;;;;;;;;;4988847;28;20053;-67
2021/04/30 08:27:27;;;;;;;0.57;0.28;;;;;;;;;;4991575;28;20438;-67
2021/04/30 08:29:53;;;;;;;0.55;0.20;;;;;;;;;;4989147;28;20117;-67
2021/04/30 08:32:19;;;;;;;0.30;0.30;;;;;;;;;;4987809;28;20046;-67
2021/04/30 08:34:45;;;;;;;1.40;0.30;;;;;;;;;;4988780;28;20109;-67
2021/04/30 08:37:12;;;;;;;0.93;0.30;;;;;;;;;;4986540;28;20058;-67
2021/04/30 08:39:38;;;;;;;1.60;0.40;;;;;;;;;;4990648;28;20482;-67
2021/04/30 08:42:05;;;;;;;1.45;0.75;;;;;;;;;;4992132;28;20018;-68
2021/04/30 08:44:31;;;;;;;1.00;0.65;;;;;;;;;;4988618;28;20030;-67
2021/04/30 08:46:57;;;;;;;0.35;0.20;;;;;;;;;;4988276;28;20034;-67
2021/04/30 08:49:23;;;;;;;1.67;0.60;;;;;;;;;;4988307;28;20542;-67
2021/04/30 08:51:49;;;;;;;1.45;0.55;;;;;;;;;;4970806;28;20031;-68
2021/04/30 08:54:19;;;;;;;0.70;0.50;;;;;;;;;;4991517;28;20105;-67
2021/04/30 08:56:48;;;;;;;0.40;0.40;;;;;;;;;;4987782;28;20494;-67
2021/04/30 08:59:14;;;;;;;0.98;0.40;;;;;;;;;;4988240;28;20046;-67
2021/04/30 09:01:40;;;;;;;0.40;0.20;;;;;;;;;;4986318;28;20031;-67
2021/04/30 09:04:09;;;;;;;0.40;0.30;;;;;;;;;;4987988;28;20483;-67
2021/04/30 09:06:36;;;;;;;1.05;0.20;;;;;;;;;;4999213;28;20378;-67
2021/04/30 09:09:06;;;;;;;2.03;0.60;;;;;;;;;;4988815;28;20033;-67
2021/04/30 09:11:37;;;;;;;2.08;0.90;;;;;;;;;;4987030;28;20037;-67
2021/04/30 09:14:22;;;;;;;1.95;1.05;;;;;;;;;;4988436;28;20026;-67
2021/04/30 09:17:02;;;;;;;1.40;0.90;;;;;;;;;;4990113;28;20037;-67
2021/04/30 09:19:39;;;;;;;2.05;0.75;;;;;;;;;;4987627;28;20041;-67
2021/04/30 09:22:06;;;;;;;2.30;0.85;;;;;;;;;;4988398;28;20522;-66
2021/04/30 09:24:33;;;;;;;1.10;0.90;;;;;;;;;;4990672;28;20081;-66
2021/04/30 09:26:59;;;;;;;1.30;0.90;;;;;;;;;;4989178;28;20034;-66
2021/04/30 09:29:27;;;;;;;1.35;0.60;;;;;;;;;;4988106;28;20498;-66
2021/04/30 09:31:53;;;;;;;0.40;0.40;;;;;;;;;;4987509;28;20037;-66
2021/04/30 09:34:27;;;;;;;1.38;0.80;;;;;;;;;;4988236;28;20033;-66
2021/04/30 09:36:58;;;;;;;1.55;0.90;;;;;;;;;;4984061;28;20355;-66
2021/04/30 09:39:24;;;;;;;1.00;0.90;;;;;;;;;;4989610;28;20042;-66
2021/04/30 09:42:09;;;;;;;1.40;0.60;;;;;;;;;;4989630;28;20030;-66
2021/04/30 09:44:39;;;;;;;0.57;0.40;;;;;;;;;;4987947;28;20109;-66
2021/04/30 09:47:20;;;;;;;0.32;0.32;;;;;;;;;;4988078;28;20037;-68
2021/04/30 09:49:47;;;;;;;0.30;0.30;;;;;;;;;;4987561;28;20072;-68
2021/04/30 09:52:13;;;;;;;2.03;0.50;;;;;;;;;;4987860;28;20486;-67
2021/04/30 09:54:40;;;;;;;0.40;0.30;;;;;;;;;;4989493;28;20026;-67
2021/04/30 09:57:09;;;;;;;0.57;0.50;;;;;;;;;;4989671;28;20478;-67
2021/04/30 09:59:39;;;;;;;0.68;0.20;;;;;;;;;;4987727;28;20038;-65
2021/04/30 10:02:25;;;;;;;0.28;0.20;;;;;;;;;;4993026;28;20077;-65
2021/04/30 10:04:52;;;;;;;0.30;0.20;;;;;;;;;;4981286;28;20031;-66
2021/04/30 10:07:34;;;;;;;0.98;0.20;;;;;;;;;;4983402;28;20023;-65
2021/04/30 10:10:11;;;;;;;0.20;0.20;;;;;;;;;;4972149;28;20572;-65
2021/04/30 10:12:47;;;;;;;0.30;0.30;;;;;;;;;;4986250;28;20056;-65
2021/04/30 10:15:14;;;;;;;0.57;0.30;;;;;;;;;;4986793;28;20106;-65
2021/04/30 10:17:40;;;;;;;0.20;0.20;;;;;;;;;;4989557;28;20482;-65
2021/04/30 10:20:08;;;;;;;0.55;0.30;;;;;;;;;;4986488;28;20394;-65
2021/04/30 10:22:35;;;;;;;0.70;0.20;;;;;;;;;;4983965;28;20474;-65
2021/04/30 10:25:02;;;;;;;0.60;0.20;;;;;;;;;;4985293;28;20042;-66
2021/04/30 10:27:30;;;;;;;0.30;0.20;;;;;;;;;;4993057;28;20041;-65
2021/04/30 10:29:56;;;;;;;;;;;;;;;;;;4993743;28;20097;-65
2021/04/30 10:32:24;;;;;;;0.20;0.20;;;;;;;;;;5005561;28;20048;-65
2021/04/30 10:34:51;;;;;;;1.00;0.50;;;;;;;;;;4989889;28;20034;-65
2021/04/30 10:37:23;;;;;;;0.82;0.63;;;;;;;;;;4990643;28;20030;-64
2021/04/30 10:39:57;;;;;;;1.88;0.90;;;;;;;;;;4991590;28;20045;-65
2021/04/30 10:42:26;;;;;;;2.42;0.80;;;;;;;;;;4989477;28;20042;-65
2021/04/30 10:44:58;;;;;;;1.17;0.80;;;;;;;;;;4990702;28;20069;-64
2021/04/30 10:47:24;;;;;;;0.52;0.45;;;;;;;;;;4990590;28;20034;-65
2021/04/30 10:50:13;;;;;;;1.58;0.98;;;;;;;;;;4990706;28;20046;-65
2021/04/30 10:52:40;;;;;;;1.67;0.88;;;;;;;;;;4990134;28;20030;-65
2021/04/30 10:55:07;;;;;;;0.98;0.70;;;;;;;;;;4986839;28;20030;-65
2021/04/30 10:58:05;;;;;;;0.63;0.30;;;;;;;;;;4992774;28;20540;-65
2021/04/30 11:00:39;;;;;;;0.30;0.30;;;;;;;;;;4967921;28;20046;-65
2021/04/30 11:03:18;;;;;;;1.05;0.50;;;;;;;;;;4991877;28;20066;-65
2021/04/30 11:05:55;;;;;;;1.45;0.20;;;;;;;;;;4990741;28;20022;-65
2021/04/30 11:08:41;;;;;;;0.13;0.10;;;;;;;;;;4992831;28;20069;-64
2021/04/30 11:11:07;;;;;;;0.35;0.22;;;;;;;;;;4989713;28;20068;-63
2021/04/30 11:13:33;;;;;;;0.40;0.20;;;;;;;;;;4989834;28;20092;-64
2021/04/30 11:16:00;;;;;;;1.35;0.40;;;;;;;;;;4989363;28;21273;-64
2021/04/30 11:18:27;;;;;;;0.77;0.40;;;;;;;;;;4992853;28;20478;-63
2021/04/30 11:21:04;;;;;;;0.65;0.40;;;;;;;;;;4989829;28;20022;-64
2021/04/30 11:23:37;;;;;;;0.32;0.30;;;;;;;;;;4989962;28;20121;-64
2021/04/30 11:26:07;;;;;;;0.65;0.10;;;;;;;;;;4989189;28;20110;-64
2021/04/30 11:28:33;;;;;;;0.75;0.30;;;;;;;;;;4989420;28;20034;-63
2021/04/30 11:31:04;;;;;;;1.40;0.90;;;;;;;;;;4989158;28;20019;-64
2021/04/30 11:33:30;;;;;;;4.88;2.53;;;;;;;;;;4992257;28;20034;-64
2021/04/30 11:35:57;;;;;;;3.13;1.70;;;;;;;;;;4989878;28;20037;-65
2021/04/30 11:38:44;;;;;;;3.45;2.00;;;;;;;;;;4989437;28;20043;-64
2021/04/30 11:41:11;;;;;;;2.88;1.60;;;;;;;;;;4990392;28;20086;-65
2021/04/30 11:43:38;;;;;;;3.55;2.15;;;;;;;;;;4989652;28;20038;-65
2021/04/30 11:46:04;;;;;;;0.77;0.68;;;;;;;;;;4988902;28;20018;-64
2021/04/30 11:48:30;;;;;;;0.52;0.50;;;;;;;;;;4991300;28;20022;-65
2021/04/30 11:51:00;;;;;;;0.50;0.50;;;;;;;;;;4973254;28;20370;-65
2021/04/30 11:53:26;;;;;;;1.13;0.60;;;;;;;;;;4989067;28;20100;-64
2021/04/30 11:55:53;;;;;;;1.55;1.10;;;;;;;;;;4988540;28;20034;-65
2021/04/30 11:58:19;;;;;;;1.33;1.02;;;;;;;;;;4971952;28;20054;-65
2021/04/30 12:00:50;;;;;;;2.08;1.10;;;;;;;;;;4990424;28;20449;-65
2021/04/30 12:03:16;;;;;;;1.27;1.02;;;;;;;;;;4990453;28;20030;-65
2021/04/30 12:05:44;;;;;;;1.45;1.10;;;;;;;;;;4988620;28;20026;-65
2021/04/30 12:08:10;;;;;;;1.93;1.33;;;;;;;;;;4989388;28;20034;-65
2021/04/30 12:10:36;;;;;;;2.17;1.40;;;;;;;;;;4988195;28;20268;-65
2021/04/30 12:13:05;;;;;;;2.20;1.38;;;;;;;;;;4989076;28;20035;-65
2021/04/30 12:15:34;;;;;;;1.90;1.30;;;;;;;;;;4990224;28;20239;-65
2021/04/30 12:18:00;;;;;;;;;;;;;;;;;;4990195;28;20494;-65
2021/04/30 12:20:30;;;;;;;3.65;1.90;;;;;;;;;;4986793;28;19917;-65
2021/04/30 12:23:06;;;;;;;2.00;1.60;;;;;;;;;;4988487;28;20443;-65
2021/04/30 12:25:35;;;;;;;2.88;1.90;;;;;;;;;;4988168;28;20051;-65
2021/04/30 12:28:21;;;;;;;3.30;2.00;;;;;;;;;;4988536;28;20347;-65
2021/04/30 12:30:59;;;;;;;3.60;2.35;;;;;;;;;;4988574;28;20027;-65
2021/04/30 12:33:26;;;;;;;1.77;0.98;;;;;;;;;;4987905;28;20122;-65
2021/04/30 12:35:53;;;;;;;2.30;0.90;;;;;;;;;;4988573;28;20038;-64
2021/04/30 12:38:20;;;;;;;0.93;0.80;;;;;;;;;;4987892;28;20042;-64
2021/04/30 12:40:46;;;;;;;1.92;0.98;;;;;;;;;;4989819;28;20036;-64
2021/04/30 12:43:12;;;;;;;1.48;1.10;;;;;;;;;;4987854;28;20023;-64
2021/04/30 12:45:41;;;;;;;2.15;1.20;;;;;;;;;;4990033;28;20430;-65
2021/04/30 12:48:07;;;;;;;2.72;1.20;;;;;;;;;;4990489;28;20065;-65
2021/04/30 12:50:33;;;;;;;1.63;1.15;;;;;;;;;;4988404;28;20121;-65
2021/04/30 12:53:00;;;;;;;2.10;1.40;;;;;;;;;;4987633;28;20116;-64
2021/04/30 12:55:30;;;;;;;2.28;1.50;;;;;;;;;;4988014;28;20029;-65
2021/04/30 12:58:03;;;;;;;2.20;1.77;;;;;;;;;;4988141;28;20074;-65
2021/04/30 13:00:29;;;;;;;2.28;1.65;;;;;;;;;;4991301;28;20069;-64
2021/04/30 13:02:55;;;;;;;3.13;1.40;;;;;;;;;;4989022;28;20034;-65
2021/04/30 13:05:22;;;;;;;2.83;1.60;;;;;;;;;;4986198;28;20045;-64
2021/04/30 13:07:49;;;;;;;2.25;1.55;;;;;;;;;;4988221;28;20030;-65
2021/04/30 13:10:23;;;;;;;2.55;1.90;;;;;;;;;;4988066;28;20045;-65
2021/04/30 13:13:00;;;;;;;3.00;1.90;;;;;;;;;;4988866;28;20025;-64
2021/04/30 13:15:26;;;;;;;2.55;1.80;;;;;;;;;;4987114;28;20109;-65
2021/04/30 13:17:57;;;;;;;2.97;1.80;;;;;;;;;;4988323;28;20464;-65
2021/04/30 13:20:32;;;;;;;4.55;2.38;;;;;;;;;;4987842;28;20427;-65
2021/04/30 13:22:59;;;;;;;4.85;2.40;;;;;;;;;;4987561;28;20061;-65
2021/04/30 13:25:33;;;;;;;3.53;2.53;;;;;;;;;;4987368;28;20109;-65
2021/04/30 13:27:59;;;;;;;5.05;2.97;;;;;;;;;;4973806;28;20176;-65
2021/04/30 13:30:35;;;;;;;4.35;2.85;;;;;;;;;;4990696;28;20506;-65
2021/04/30 13:33:13;;;;;;;5.10;3.40;;;;;;;;;;4989145;28;20106;-65
2021/04/30 13:35:39;;;;;;;;;;;;;;;;;;4986735;28;20019;-65
2021/04/30 13:38:05;;;;;;;3.95;2.95;;;;;;;;;;4988056;28;19925;-65
2021/04/30 13:40:31;;;;;;;6.68;4.03;;;;;;;;;;4989396;28;20371;-65
2021/04/30 13:43:00;;;;;;;7.30;3.20;;;;;;;;;;4987800;28;20037;-65
2021/04/30 13:45:26;;;;;;;5.20;3.30;;;;;;;;;;4990044;28;20021;-65
2021/04/30 13:47:53;;;;;;;6.30;2.92;;;;;;;;;;4988599;28;20034;-65
2021/04/30 13:50:31;;;;;;;5.27;3.33;;;;;;;;;;4988893;28;20060;-65
2021/04/30 13:52:59;;;;;;;6.55;3.85;;;;;;;;;;4991299;28;20363;-65
2021/04/30 13:55:25;;;;;;;6.33;4.03;;;;;;;;;;4990644;28;20052;-65
2021/04/30 13:57:51;;;;;;;5.68;3.72;;;;;;;;;;4992029;28;20080;-65
2021/04/30 14:00:18;;;;;;;4.88;3.20;;;;;;;;;;4994641;28;20026;-65
2021/04/30 14:02:45;;;;;;;5.28;3.05;;;;;;;;;;4991560;28;20379;-65
2021/04/30 14:05:11;;;;;;;4.88;3.03;;;;;;;;;;4988814;28;20037;-66
2021/04/30 14:07:40;;;;;;;6.45;3.40;;;;;;;;;;4990027;28;20026;-65
2021/04/30 14:10:06;;;;;;;6.00;3.90;;;;;;;;;;4991395;28;20034;-66
2021/04/30 14:12:32;;;;;;;6.47;3.42;;;;;;;;;;4990658;28;20024;-66
2021/04/30 14:14:58;;;;;;;8.55;3.13;;;;;;;;;;4987633;28;20114;-66
2021/04/30 14:17:24;;;;;;;3.35;2.50;;;;;;;;;;4989255;28;20375;-66
2021/04/30 14:19:50;;;;;;;4.50;2.60;;;;;;;;;;4987139;28;20039;-66
2021/04/30 14:22:16;;;;;;;6.95;3.10;;;;;;;;;;4991922;28;20094;-66
2021/04/30 14:24:42;;;;;;;5.65;3.55;;;;;;;;;;4984679;28;20056;-66
2021/04/30 14:27:09;;;;;;;5.85;3.75;;;;;;;;;;4993225;28;20058;-66
2021/04/30 14:29:39;;;;;;;7.07;4.30;;;;;;;;;;4986365;28;20093;-66
2021/04/30 14:32:06;;;;;;;7.38;3.97;;;;;;;;;;4989933;28;20548;-66
2021/04/30 14:34:32;;;;;;;5.43;3.05;;;;;;;;;;4986532;28;20482;-66
2021/04/30 14:36:58;;;;;;;5.18;3.30;;;;;;;;;;4989354;28;20066;-65
2021/04/30 14:39:24;;;;;;;7.18;5.10;;;;;;;;;;4991906;28;20076;-65
2021/04/30 14:41:51;;;;;;;25.55;22.42;;;;;;;;;;4990922;28;20081;-65
2021/04/30 14:44:17;;;;;;;13.25;9.80;;;;;;;;;;4987110;28;20026;-65